createdAt,value
2022-12-17T00:00:42.494Z,103.77
2022-12-17T00:03:29.397Z,99.37
2022-12-17T00:06:15.443Z,92.07
2022-12-17T00:09:01.696Z,95.13
2022-12-17T00:11:47.530Z,106.23
2022-12-17T00:14:34.916Z,101.93
2022-12-17T00:17:20.957Z,107.87
2022-12-17T00:20:07.063Z,99.43
2022-12-17T00:22:53.324Z,103.77
2022-12-17T00:25:39.198Z,111.80
2022-12-17T00:28:28.779Z,98.03
2022-12-17T00:31:16.180Z,100.63
2022-12-17T00:34:02.237Z,107.73
2022-12-17T00:36:48.350Z,111.90
2022-12-17T00:39:34.300Z,107.03
2022-12-17T00:42:20.210Z,99.10
2022-12-17T00:45:14.711Z,114.53
2022-12-17T00:48:01.689Z,109.00
2022-12-17T00:50:47.896Z,125.90
2022-12-17T00:53:34.279Z,123.47
2022-12-17T00:56:16.739Z,113.17
2022-12-17T00:59:02.820Z,133.73
2022-12-17T01:01:48.899Z,114.90
2022-12-17T01:04:36.445Z,116.87
2022-12-17T01:07:22.577Z,113.87
2022-12-17T01:10:04.849Z,106.07
2022-12-17T01:12:50.802Z,112.80
2022-12-17T01:15:38.179Z,105.77
2022-12-17T01:18:24.379Z,113.37
2022-12-17T01:21:16.783Z,126.30
2022-12-17T01:24:02.915Z,126.73
2022-12-17T01:26:48.891Z,109.33
2022-12-17T01:29:35.230Z,113.17
2022-12-17T01:32:21.408Z,106.60
2022-12-17T01:35:07.611Z,112.83
2022-12-17T01:38:06.612Z,101.47
2022-12-17T01:40:52.659Z,102.87
2022-12-17T01:43:50.818Z,101.00
2022-12-17T01:46:37.251Z,108.93
2022-12-17T01:49:23.296Z,97.23
2022-12-17T01:52:11.285Z,91.07
2022-12-17T01:54:58.857Z,89.90
2022-12-17T01:57:45.339Z,84.03
2022-12-17T02:00:33.143Z,82.87
2022-12-17T02:03:19.248Z,81.40
2022-12-17T02:06:12.962Z,82.13
2022-12-17T02:09:03.561Z,81.77
2022-12-17T02:11:56.847Z,91.00
2022-12-17T02:14:47.286Z,80.27
2022-12-17T02:17:37.091Z,79.33
2022-12-17T02:20:27.909Z,90.40
2022-12-17T02:23:20.900Z,94.87
2022-12-17T02:26:09.271Z,94.33
2022-12-17T02:28:57.545Z,89.40
2022-12-17T02:31:43.989Z,86.70
2022-12-17T02:34:30.115Z,81.83
2022-12-17T02:37:16.358Z,81.27
2022-12-17T02:40:13.917Z,71.03
2022-12-17T02:43:01.136Z,78.40
2022-12-17T02:45:48.895Z,88.37
2022-12-17T02:48:35.414Z,91.70
2022-12-17T02:51:21.399Z,87.50
2022-12-17T02:54:10.090Z,79.73
2022-12-17T02:56:56.027Z,85.57
2022-12-17T02:59:42.260Z,96.43
2022-12-17T03:02:29.717Z,89.47
2022-12-17T03:05:43.522Z,80.37
2022-12-17T03:08:21.747Z,86.83
2022-12-17T03:11:07.947Z,86.83
2022-12-17T03:13:54.086Z,77.20
2022-12-17T03:16:40.152Z,86.57
2022-12-17T03:19:28.903Z,85.73
2022-12-17T03:22:14.995Z,86.47
2022-12-17T03:25:01.196Z,92.93
2022-12-17T03:27:47.161Z,73.87
2022-12-17T03:30:45.794Z,81.73
2022-12-17T03:33:30.816Z,85.67
2022-12-17T03:36:17.923Z,84.13
2022-12-17T03:39:09.171Z,83.47
2022-12-17T03:41:55.243Z,78.70
2022-12-17T03:44:41.548Z,82.00
2022-12-17T03:47:27.681Z,76.20
2022-12-17T03:50:13.561Z,85.23
2022-12-17T03:53:01.146Z,82.03
2022-12-17T03:55:46.933Z,75.53
2022-12-17T03:58:32.935Z,84.47
2022-12-17T04:01:19.177Z,78.63
2022-12-17T04:04:04.980Z,74.70
2022-12-17T04:06:50.974Z,79.77
2022-12-17T04:09:38.236Z,72.80
2022-12-17T04:12:24.120Z,71.43
2022-12-17T04:15:10.230Z,71.37
2022-12-17T04:17:56.389Z,77.33
2022-12-17T04:20:56.859Z,70.90
2022-12-17T04:23:42.892Z,69.67
2022-12-17T04:26:30.094Z,74.20
2022-12-17T04:29:15.389Z,74.63
2022-12-17T04:32:01.500Z,68.87
2022-12-17T04:34:47.591Z,75.23
2022-12-17T04:37:33.893Z,72.40
2022-12-17T04:40:19.861Z,73.70
2022-12-17T04:43:07.446Z,65.37
2022-12-17T04:45:53.661Z,58.03
2022-12-17T04:48:43.075Z,66.30
2022-12-17T04:51:28.943Z,74.40
2022-12-17T04:54:15.052Z,66.60
2022-12-17T04:57:00.977Z,60.83
2022-12-17T04:59:48.152Z,61.47
2022-12-17T05:02:38.226Z,56.53
2022-12-17T05:05:27.356Z,60.90
2022-12-17T05:08:13.373Z,63.13
2022-12-17T05:10:59.252Z,64.67
2022-12-17T05:13:45.416Z,70.93
2022-12-17T05:16:33.195Z,64.07
2022-12-17T05:19:19.143Z,65.47
2022-12-17T05:22:05.132Z,59.80
2022-12-17T05:24:51.149Z,62.50
2022-12-17T05:27:37.141Z,59.17
2022-12-17T05:30:23.784Z,67.73
2022-12-17T05:33:18.376Z,63.40
2022-12-17T05:36:04.378Z,64.10
2022-12-17T05:38:50.629Z,63.73
2022-12-17T05:41:36.889Z,62.50
2022-12-17T05:44:22.866Z,56.30
2022-12-17T05:47:08.982Z,61.77
2022-12-17T05:49:56.349Z,58.40
2022-12-17T05:52:42.657Z,62.17
2022-12-17T05:55:28.737Z,56.30
2022-12-17T05:58:20.861Z,56.63
2022-12-17T06:01:07.026Z,58.17
2022-12-17T06:03:53.257Z,59.07
2022-12-17T06:06:40.779Z,62.33
2022-12-17T06:09:26.850Z,57.63
2022-12-17T06:12:12.929Z,58.27
2022-12-17T06:14:59.057Z,57.97
2022-12-17T06:17:45.060Z,55.53
2022-12-17T06:20:31.098Z,56.73
2022-12-17T06:23:21.211Z,58.17
2022-12-17T06:26:07.404Z,60.57
2022-12-17T06:28:53.504Z,55.43
2022-12-17T06:31:39.719Z,53.50
2022-12-17T06:34:25.890Z,61.90
2022-12-17T06:37:11.154Z,57.47
2022-12-17T06:39:58.292Z,61.93
2022-12-17T06:42:44.426Z,57.27
2022-12-17T06:45:30.577Z,61.70
2022-12-17T06:48:20.547Z,69.30
2022-12-17T06:51:06.792Z,61.57
2022-12-17T06:53:52.630Z,69.00
2022-12-17T06:56:39.907Z,63.60
2022-12-17T06:59:26.098Z,62.63
2022-12-17T07:02:12.053Z,63.70
2022-12-17T07:04:58.066Z,58.00
2022-12-17T07:07:44.174Z,64.40
2022-12-17T07:10:30.221Z,58.37
2022-12-17T07:13:22.922Z,64.17
2022-12-17T07:16:09.249Z,68.53
2022-12-17T07:18:56.140Z,68.10
2022-12-17T07:21:44.216Z,58.37
2022-12-17T07:24:30.270Z,51.87
2022-12-17T07:27:16.003Z,58.20
2022-12-17T07:30:03.409Z,60.67
2022-12-17T07:32:49.404Z,49.17
2022-12-17T07:35:35.447Z,49.33
2022-12-17T07:38:22.432Z,55.13
2022-12-17T07:41:08.320Z,50.27
2022-12-17T07:43:54.229Z,53.27
2022-12-17T07:46:41.497Z,50.63
2022-12-17T07:49:27.532Z,48.30
2022-12-17T07:52:13.672Z,49.00
2022-12-17T07:54:59.878Z,52.00
2022-12-17T07:57:46.037Z,57.07
2022-12-17T08:00:32.649Z,56.20
2022-12-17T08:03:20.632Z,57.60
2022-12-17T08:06:06.476Z,52.57
2022-12-17T08:08:52.544Z,55.43
2022-12-17T08:11:38.780Z,53.97
2022-12-17T08:14:25.036Z,46.67
2022-12-17T08:17:11.193Z,50.33
2022-12-17T08:19:58.525Z,53.70
2022-12-17T08:22:44.314Z,54.87
2022-12-17T08:25:30.457Z,58.13
2022-12-17T08:28:50.199Z,59.63
2022-12-17T08:31:25.407Z,56.40
2022-12-17T08:34:11.588Z,49.10
2022-12-17T08:36:58.731Z,51.60
2022-12-17T08:39:44.821Z,60.23
2022-12-17T08:42:30.773Z,52.33
2022-12-17T08:45:16.963Z,46.37
2022-12-17T08:48:04.321Z,49.80
2022-12-17T08:50:50.403Z,49.40
2022-12-17T08:53:37.969Z,47.27
2022-12-17T08:56:24.696Z,44.93
2022-12-17T08:59:10.467Z,44.60
2022-12-17T09:01:56.696Z,41.60
2022-12-17T09:04:42.707Z,50.53
2022-12-17T09:07:42.989Z,50.83
2022-12-17T09:10:30.167Z,49.27
2022-12-17T09:13:20.015Z,46.57
2022-12-17T09:16:10.795Z,43.53
2022-12-17T09:18:56.604Z,40.93
2022-12-17T09:21:43.101Z,41.20
2022-12-17T09:24:29.439Z,43.07
2022-12-17T09:27:16.554Z,44.33
2022-12-17T09:30:02.492Z,33.97
2022-12-17T09:32:49.875Z,37.70
2022-12-17T09:35:35.768Z,42.43
2022-12-17T09:38:27.220Z,43.50
2022-12-17T09:41:13.463Z,38.97
2022-12-17T09:44:03.869Z,36.97
2022-12-17T09:46:52.564Z,43.80
2022-12-17T09:49:43.912Z,45.00
2022-12-17T09:52:37.002Z,45.47
2022-12-17T09:55:23.572Z,44.63
2022-12-17T09:58:09.646Z,43.10
2022-12-17T10:01:01.014Z,37.83
2022-12-17T10:03:48.233Z,40.13
2022-12-17T10:06:36.993Z,40.17
2022-12-17T10:09:29.748Z,39.07
2022-12-17T10:12:15.493Z,36.60
2022-12-17T10:15:01.718Z,35.17
2022-12-17T10:17:51.167Z,38.63
2022-12-17T10:20:40.622Z,34.80
2022-12-17T10:23:41.431Z,34.77
2022-12-17T10:26:27.469Z,30.20
2022-12-17T10:29:20.918Z,30.10
2022-12-17T10:32:07.249Z,28.43
2022-12-17T10:35:01.861Z,35.13
2022-12-17T10:37:51.306Z,35.33
2022-12-17T10:40:41.449Z,42.50
2022-12-17T10:43:41.725Z,33.57
2022-12-17T10:46:27.649Z,38.47
2022-12-17T10:49:23.146Z,39.50
2022-12-17T10:52:10.557Z,34.57
2022-12-17T10:54:56.699Z,33.20
2022-12-17T10:57:45.240Z,37.33
2022-12-17T11:00:35.248Z,35.40
2022-12-17T11:03:21.799Z,40.10
2022-12-17T11:06:08.739Z,42.93
2022-12-17T11:08:56.671Z,37.20
2022-12-17T11:11:42.955Z,38.03
2022-12-17T11:14:44.974Z,36.40
2022-12-17T11:17:34.524Z,39.30
2022-12-17T11:20:21.713Z,40.17
2022-12-17T11:23:09.419Z,45.20
2022-12-17T11:26:00.181Z,37.97
2022-12-17T11:28:47.151Z,41.00
2022-12-17T11:31:50.258Z,39.60
2022-12-17T11:34:40.708Z,47.13
2022-12-17T11:37:33.356Z,34.77
2022-12-17T11:40:22.863Z,41.73
2022-12-17T11:43:11.535Z,51.47
2022-12-17T11:46:05.110Z,48.07
2022-12-17T11:49:02.278Z,43.73
2022-12-17T11:51:50.748Z,40.20
2022-12-17T11:54:40.523Z,38.77
2022-12-17T11:57:31.373Z,36.73
2022-12-17T12:00:21.355Z,41.37
2022-12-17T12:03:13.079Z,38.90
2022-12-17T12:06:04.563Z,37.77
2022-12-17T12:08:52.628Z,41.60
2022-12-17T12:11:43.893Z,41.93
2022-12-17T12:14:34.087Z,39.50
2022-12-17T12:17:24.747Z,42.47
2022-12-17T12:20:15.142Z,38.13
2022-12-17T12:23:05.036Z,38.23
2022-12-17T12:25:54.014Z,43.73
2022-12-17T12:28:48.160Z,49.17
2022-12-17T12:31:46.238Z,39.43
2022-12-17T12:34:36.888Z,45.20
2022-12-17T12:37:24.477Z,46.07
2022-12-17T12:40:13.412Z,42.33
2022-12-17T12:43:02.358Z,40.63
2022-12-17T12:45:57.448Z,41.63
2022-12-17T12:48:51.383Z,41.93
2022-12-17T12:51:41.098Z,39.03
2022-12-17T12:54:45.666Z,41.93
2022-12-17T12:57:47.798Z,35.23
2022-12-17T13:00:44.502Z,37.00
2022-12-17T13:03:39.797Z,42.27
2022-12-17T13:06:08.599Z,44.10
2022-12-17T13:08:38.865Z,41.90
2022-12-17T13:11:22.315Z,42.00
2022-12-17T13:13:56.953Z,46.07
2022-12-17T13:16:30.618Z,47.40
2022-12-17T13:19:03.597Z,44.77
2022-12-17T13:21:32.618Z,41.23
2022-12-17T13:24:11.524Z,40.00
2022-12-17T13:26:45.216Z,43.47
2022-12-17T13:29:21.559Z,37.50
2022-12-17T13:31:54.781Z,42.33
2022-12-17T13:34:28.022Z,35.50
2022-12-17T13:36:59.800Z,42.33
2022-12-17T13:39:34.527Z,44.43
2022-12-17T13:42:03.027Z,42.23
2022-12-17T13:44:35.897Z,45.37
2022-12-17T13:47:04.347Z,43.67
2022-12-17T13:49:33.260Z,45.57
2022-12-17T13:52:07.998Z,46.03
2022-12-17T13:54:41.069Z,46.77
2022-12-17T13:57:10.223Z,44.93
2022-12-17T13:59:38.620Z,43.90
2022-12-17T14:02:07.300Z,40.87
2022-12-17T14:04:35.767Z,43.83
2022-12-17T14:07:06.384Z,44.17
2022-12-17T14:09:36.761Z,46.03
2022-12-17T14:12:25.039Z,39.97
2022-12-17T14:14:57.003Z,41.90
2022-12-17T14:17:26.589Z,42.97
2022-12-17T14:19:59.227Z,42.63
2022-12-17T14:22:31.569Z,42.47
2022-12-17T14:25:00.145Z,44.80
2022-12-17T14:27:34.300Z,40.77
2022-12-17T14:30:02.728Z,45.17
2022-12-17T14:32:33.390Z,42.47
2022-12-17T14:35:01.801Z,45.17
2022-12-17T14:37:30.409Z,41.20
2022-12-17T14:40:02.214Z,42.23
2022-12-17T14:42:32.609Z,45.30
2022-12-17T14:45:02.566Z,47.83
2022-12-17T14:47:31.770Z,41.60
2022-12-17T14:50:02.037Z,48.17
2022-12-17T14:52:41.495Z,44.13
2022-12-17T14:55:26.349Z,43.77
2022-12-17T14:58:08.011Z,40.93
2022-12-17T15:00:36.854Z,40.10
2022-12-17T15:03:05.578Z,45.23
2022-12-17T15:05:34.184Z,41.70
2022-12-17T15:08:02.609Z,38.37
2022-12-17T15:10:31.099Z,36.27
2022-12-17T15:13:01.073Z,39.33
2022-12-17T15:15:29.471Z,39.10
2022-12-17T15:17:57.859Z,36.23
2022-12-17T15:20:26.251Z,41.20
2022-12-17T15:22:54.665Z,41.77
2022-12-17T15:25:23.042Z,38.13
2022-12-17T15:27:51.484Z,34.93
2022-12-17T15:30:21.326Z,32.80
2022-12-17T15:32:49.691Z,36.10
2022-12-17T15:35:18.080Z,35.47
2022-12-17T15:37:46.467Z,38.93
2022-12-17T15:40:14.862Z,34.37
2022-12-17T15:43:06.032Z,37.40
2022-12-17T15:45:36.150Z,37.57
2022-12-17T15:48:04.502Z,37.10
2022-12-17T15:50:32.895Z,37.77
2022-12-17T15:53:01.373Z,37.30
2022-12-17T15:55:30.047Z,40.33
2022-12-17T15:57:58.421Z,37.90
2022-12-17T16:00:26.848Z,43.37
2022-12-17T16:02:56.791Z,37.47
2022-12-17T16:05:25.555Z,34.07
2022-12-17T16:07:53.987Z,42.40
2022-12-17T16:10:22.379Z,38.50
2022-12-17T16:12:50.756Z,38.30
2022-12-17T16:15:19.107Z,36.53
2022-12-17T16:17:47.599Z,37.87
2022-12-17T16:20:17.493Z,39.67
2022-12-17T16:22:46.214Z,37.23
2022-12-17T16:25:14.610Z,37.37
2022-12-17T16:27:43.019Z,47.33
2022-12-17T16:30:12.224Z,41.20
2022-12-17T16:32:40.635Z,40.27
2022-12-17T16:35:09.213Z,42.43
2022-12-17T16:37:39.079Z,38.63
2022-12-17T16:40:08.032Z,40.30
2022-12-17T16:42:36.418Z,41.23
2022-12-17T16:45:04.991Z,40.70
2022-12-17T16:47:33.383Z,39.03
2022-12-17T16:50:01.758Z,39.47
2022-12-17T16:52:30.145Z,39.57
2022-12-17T16:54:59.910Z,42.27
2022-12-17T16:57:28.307Z,40.80
2022-12-17T16:59:56.800Z,43.57
2022-12-17T17:02:25.706Z,40.83
2022-12-17T17:04:54.195Z,35.43
2022-12-17T17:07:22.613Z,39.13
2022-12-17T17:09:51.001Z,39.67
2022-12-17T17:12:20.739Z,40.73
2022-12-17T17:14:49.096Z,39.67
2022-12-17T17:17:17.474Z,37.03
2022-12-17T17:19:45.885Z,40.17
2022-12-17T17:22:14.316Z,42.53
2022-12-17T17:24:42.708Z,37.47
2022-12-17T17:27:11.137Z,36.20
2022-12-17T17:29:40.884Z,36.37
2022-12-17T17:32:10.936Z,39.60
2022-12-17T17:34:40.356Z,38.17
2022-12-17T17:37:08.814Z,40.90
2022-12-17T17:39:37.224Z,40.10
2022-12-17T17:42:05.658Z,40.17
2022-12-17T17:44:34.060Z,39.50
2022-12-17T17:47:03.881Z,48.47
2022-12-17T17:49:32.367Z,38.57
2022-12-17T17:52:09.353Z,42.73
2022-12-17T17:54:39.433Z,36.67
2022-12-17T17:57:07.960Z,44.70
2022-12-17T17:59:36.415Z,41.63
2022-12-17T18:02:06.237Z,39.03
2022-12-17T18:04:34.774Z,37.73
2022-12-17T18:09:51.672Z,40.87
2022-12-17T18:12:37.748Z,38.73
2022-12-17T18:15:15.794Z,42.97
2022-12-17T18:17:47.795Z,37.03
2022-12-17T18:20:16.375Z,39.23
2022-12-17T18:22:46.273Z,40.70
2022-12-17T18:25:15.351Z,43.47
2022-12-17T18:27:43.747Z,45.40
2022-12-17T18:30:12.592Z,43.50
2022-12-17T18:32:41.006Z,45.47
2022-12-17T18:35:11.567Z,43.97
2022-12-17T18:37:40.243Z,42.37
2022-12-17T18:40:09.498Z,43.60
2022-12-17T18:42:55.538Z,41.17
2022-12-17T18:45:24.114Z,41.63
2022-12-17T18:47:52.866Z,35.57
2022-12-17T18:50:22.837Z,38.90
2022-12-17T18:52:51.546Z,37.47
2022-12-17T18:55:20.276Z,35.17
2022-12-17T18:57:49.026Z,35.13
2022-12-17T19:00:17.780Z,44.50
2022-12-17T19:02:46.473Z,43.03
2022-12-17T19:05:15.134Z,43.03
2022-12-17T19:07:45.244Z,43.30
2022-12-17T19:10:13.854Z,40.90
2022-12-17T19:12:42.722Z,34.57
2022-12-17T19:15:11.643Z,36.43
2022-12-17T19:17:40.020Z,35.40
2022-12-17T19:20:09.091Z,42.20
2022-12-17T19:22:37.711Z,36.93
2022-12-17T19:25:07.992Z,33.80
2022-12-17T19:27:36.576Z,33.00
2022-12-17T19:30:05.359Z,36.30
2022-12-17T19:32:33.841Z,34.10
2022-12-17T19:35:02.164Z,32.53
2022-12-17T19:37:30.542Z,33.63
2022-12-17T19:39:58.890Z,31.50
2022-12-17T19:42:36.749Z,29.40
2022-12-17T19:45:05.662Z,34.30
2022-12-17T19:47:34.024Z,28.53
2022-12-17T19:50:02.387Z,31.43
2022-12-17T19:52:30.788Z,29.90
2022-12-17T19:54:59.175Z,26.73
2022-12-17T19:57:29.016Z,32.50
2022-12-17T19:59:57.393Z,30.70
2022-12-17T20:02:30.980Z,27.57
2022-12-17T20:05:01.695Z,24.50
2022-12-17T20:07:30.201Z,28.40
2022-12-17T20:09:58.819Z,31.37
2022-12-17T20:12:27.314Z,28.90
2022-12-17T20:14:57.259Z,30.27
2022-12-17T20:17:26.478Z,28.53
2022-12-17T20:19:57.979Z,25.73
2022-12-17T20:22:27.179Z,29.30
2022-12-17T20:24:56.075Z,25.57
2022-12-17T20:27:24.653Z,31.07
2022-12-17T20:29:53.282Z,25.97
2022-12-17T20:32:23.547Z,31.67
2022-12-17T20:34:52.488Z,30.63
2022-12-17T20:37:21.176Z,32.30
2022-12-17T20:39:49.530Z,31.93
2022-12-17T20:42:19.310Z,31.10
2022-12-17T20:44:53.237Z,33.87
2022-12-17T20:47:23.368Z,33.00
2022-12-17T20:49:51.725Z,35.30
2022-12-17T20:52:20.115Z,30.07
2022-12-17T20:54:49.484Z,34.37
2022-12-17T20:57:18.104Z,33.03
2022-12-17T20:59:46.525Z,34.13
2022-12-17T21:02:15.642Z,32.23
2022-12-17T21:04:45.541Z,32.20
2022-12-17T21:07:13.922Z,30.30
2022-12-17T21:09:42.354Z,25.97
2022-12-17T21:12:13.741Z,26.07
2022-12-17T21:14:42.123Z,28.60
2022-12-17T21:17:10.545Z,33.83
2022-12-17T21:19:39.092Z,30.33
2022-12-17T21:22:10.349Z,38.53
2022-12-17T21:24:39.954Z,52.23
2022-12-17T21:27:14.554Z,30.10
2022-12-17T21:29:43.625Z,26.27
2022-12-17T21:32:12.220Z,24.43
2022-12-17T21:34:41.196Z,26.57
2022-12-17T21:37:11.523Z,24.93
2022-12-17T21:39:40.160Z,23.87
2022-12-17T21:42:26.024Z,29.00
2022-12-17T21:44:54.404Z,21.73
2022-12-17T21:47:23.875Z,22.70
2022-12-17T21:49:52.272Z,23.50
2022-12-17T21:52:22.032Z,22.40
2022-12-17T21:54:50.392Z,24.43
2022-12-17T21:57:19.108Z,23.43
2022-12-17T21:59:47.756Z,23.93
2022-12-17T22:02:17.282Z,22.07
2022-12-17T22:04:45.948Z,21.47
2022-12-17T22:07:21.245Z,21.50
2022-12-17T22:10:20.361Z,25.67
2022-12-17T22:13:00.495Z,23.67
2022-12-17T22:15:32.272Z,25.83
2022-12-17T22:18:05.166Z,20.23
2022-12-17T22:20:33.771Z,22.90
2022-12-17T22:23:02.549Z,21.93
2022-12-17T22:25:32.483Z,23.53
2022-12-17T22:28:00.858Z,22.97
2022-12-17T22:30:46.827Z,19.83
2022-12-17T22:33:54.031Z,21.47
2022-12-17T22:38:46.880Z,18.27
2022-12-17T22:41:36.924Z,17.73
2022-12-17T22:44:48.900Z,18.07
2022-12-17T22:44:53.354Z,21.37
2022-12-17T22:47:23.081Z,17.70
2022-12-17T22:49:51.613Z,21.67
2022-12-17T22:52:20.690Z,19.37
2022-12-17T22:54:49.312Z,20.10
2022-12-17T22:57:36.558Z,17.17
2022-12-17T23:00:08.869Z,19.47
2022-12-17T23:02:38.415Z,21.17
2022-12-17T23:05:07.096Z,18.93
2022-12-17T23:07:35.496Z,17.27
2022-12-17T23:10:03.851Z,17.87
2022-12-17T23:12:52.381Z,22.07
2022-12-17T23:15:21.683Z,22.47
2022-12-17T23:17:50.069Z,16.97
2022-12-17T23:20:18.681Z,19.20
2022-12-17T23:22:47.302Z,17.90
2022-12-17T23:25:15.999Z,19.67
2022-12-17T23:27:46.080Z,20.87
2022-12-17T23:30:15.733Z,19.80
2022-12-17T23:32:44.717Z,18.53
2022-12-17T23:35:13.818Z,21.13
2022-12-17T23:37:42.711Z,21.67
2022-12-17T23:40:12.125Z,23.93
2022-12-17T23:42:40.981Z,22.47
2022-12-17T23:45:12.060Z,22.33
2022-12-17T23:47:41.123Z,24.43
2022-12-17T23:50:10.658Z,21.27
2022-12-17T23:52:39.529Z,17.67
2022-12-17T23:55:08.542Z,18.57
2022-12-17T23:57:36.921Z,20.43
